Detall de PIREP

Printer-friendly versionPDF version

[2016/02/01 09:41:00]
Flight IATA:CT0001
Pilot Number:041
Company ICAO:CAT
Aircraft Type:F28/A
PAX:68
Departing Airport: LELC
Destination Airport: LEMH
Alternate Airport:LEPA
Online: VATSIM
Route:ALT UN851 SUMMO MITOS BRUNO IZA MJV
Flight Level:FL240
No Slew and time accel
No pause
Crash detect
Detect pilot in Cockpit between each 30 and 45 minutes
09:41 Zero fuel Weight: 57507 Lbs, Fuel Weight: 9138 Lbs
09:41 VATSIM:LELC 010900Z 25001KT CAVOK 15/10 Q1031 NOSIG
09:41 VATSIM:LEMH 010930Z VRB02KT 9999 FEW015 16/12 Q1031
09:42 VOICE CATALONIAN
09:50 Parking Brakes off
09:56 Take-off
09:56 Take off Weight: 66216 Lbs
09:56 Wind: 253º @ 001 Knots Heading: 225º
09:56 POS N37º 46´ 15´´ W000º 49´ 01´´
09:56 Gear Up: 166 Knots
09:56 Flaps:1 at 166 Knots
09:57 Flaps:0 at 253 Knots
10:10 TOC
10:10 Fuel Weight: 7063 Lb
10:11 Wind:249º@030 Knots Heading: 067º Ground Speed: 380 Knots Altitude 24543 ft
10:25 TOD
10:25 Fuel Weight: 5891 Lb
10:26 Wind:276º@036 Knots Heading: 059º Ground Speed: 412 Knots Altitude 23946 ft
10:41 Wind:336º@013 Knots Heading: 057º Ground Speed: 249 Knots Altitude 3005 ft
10:53 Flaps:1 at 200 Knots
10:53 Flaps:3 at 195 Knots
10:55 Flaps:4 at 169 Knots
10:55 Gear Down: 154 Knots
10:56 Wind:074º@001 Knots Heading: 188º Ground Speed: 154 Knots Altitude 1568 ft
10:56 Flaps:5 at 152 Knots
10:57 TouchDown:Rate -534 ft/min Speed: 110 Knots
10:58 VATSIM:LEMH 011030Z VRB01KT 9999 FEW020 18/11 Q1031
10:58 Land
10:58 Wind:076º@001 Knots
10:58 Heading: 189º
10:58 Flight Duration: 01:02
10:58 Landing Weight: 61825 Lbs
10:58 POS N39º 51´ 52´´ E004º 13´ 08´´
10:59 Parking brakes on
10:59 Block to Block Duration: 01:09
10:59 Final Fuel: 4274 Lbls
10:59 Spent Fuel: 4863 Lbls
10:59 Flight Length: 316 NM
10:59 TOD Land Length: 146 NM

Exportar CSV

Powered by Drupal - Modified by Danger4k